sensor_id;sensor_type;location;lat;lon;timestamp;P1;durP1;ratioP1;P2;durP2;ratioP2
45466;SDS011;31212;49.734;8.490;2023-04-28T00:01:10;6.30;;;2.15;;
45466;SDS011;31212;49.734;8.490;2023-04-28T00:03:36;3.88;;;2.20;;
45466;SDS011;31212;49.734;8.490;2023-04-28T00:06:03;7.25;;;2.80;;
45466;SDS011;31212;49.734;8.490;2023-04-28T00:08:30;4.35;;;2.30;;
45466;SDS011;31212;49.734;8.490;2023-04-28T00:10:58;4.90;;;2.33;;
45466;SDS011;31212;49.734;8.490;2023-04-28T00:13:24;4.22;;;1.90;;
45466;SDS011;31212;49.734;8.490;2023-04-28T00:15:51;3.97;;;2.88;;
45466;SDS011;31212;49.734;8.490;2023-04-28T00:18:18;4.03;;;2.20;;
45466;SDS011;31212;49.734;8.490;2023-04-28T00:20:44;6.47;;;3.03;;
45466;SDS011;31212;49.734;8.490;2023-04-28T00:23:11;5.38;;;2.97;;
45466;SDS011;31212;49.734;8.490;2023-04-28T00:25:37;7.40;;;2.50;;
45466;SDS011;31212;49.734;8.490;2023-04-28T00:28:05;6.68;;;3.38;;
45466;SDS011;31212;49.734;8.490;2023-04-28T00:30:31;7.97;;;2.97;;
45466;SDS011;31212;49.734;8.490;2023-04-28T00:32:58;4.93;;;2.75;;
45466;SDS011;31212;49.734;8.490;2023-04-28T00:35:25;5.00;;;3.40;;
45466;SDS011;31212;49.734;8.490;2023-04-28T00:37:51;4.25;;;3.08;;
45466;SDS011;31212;49.734;8.490;2023-04-28T00:40:18;8.82;;;3.42;;
45466;SDS011;31212;49.734;8.490;2023-04-28T00:42:45;6.22;;;2.60;;
45466;SDS011;31212;49.734;8.490;2023-04-28T00:45:12;4.97;;;2.95;;
45466;SDS011;31212;49.734;8.490;2023-04-28T00:47:39;3.45;;;2.60;;
45466;SDS011;31212;49.734;8.490;2023-04-28T00:50:07;3.90;;;2.53;;
45466;SDS011;31212;49.734;8.490;2023-04-28T00:52:35;4.13;;;2.60;;
45466;SDS011;31212;49.734;8.490;2023-04-28T00:55:02;4.97;;;2.85;;
45466;SDS011;31212;49.734;8.490;2023-04-28T00:57:30;4.57;;;2.67;;
45466;SDS011;31212;49.734;8.490;2023-04-28T00:59:58;10.82;;;4.03;;
45466;SDS011;31212;49.734;8.490;2023-04-28T01:02:26;5.70;;;3.38;;
45466;SDS011;31212;49.734;8.490;2023-04-28T01:04:55;7.15;;;3.80;;
45466;SDS011;31212;49.734;8.490;2023-04-28T01:07:23;4.05;;;2.85;;
45466;SDS011;31212;49.734;8.490;2023-04-28T01:09:50;6.70;;;3.47;;
45466;SDS011;31212;49.734;8.490;2023-04-28T01:12:21;9.98;;;3.60;;
45466;SDS011;31212;49.734;8.490;2023-04-28T01:14:51;7.10;;;3.17;;
45466;SDS011;31212;49.734;8.490;2023-04-28T01:17:18;4.55;;;2.47;;
45466;SDS011;31212;49.734;8.490;2023-04-28T01:19:46;7.63;;;3.78;;
45466;SDS011;31212;49.734;8.490;2023-04-28T01:22:13;5.95;;;3.45;;
45466;SDS011;31212;49.734;8.490;2023-04-28T01:24:43;9.25;;;3.10;;
45466;SDS011;31212;49.734;8.490;2023-04-28T01:27:11;9.88;;;3.25;;
45466;SDS011;31212;49.734;8.490;2023-04-28T01:29:40;8.65;;;3.58;;
45466;SDS011;31212;49.734;8.490;2023-04-28T01:32:06;5.28;;;3.75;;
45466;SDS011;31212;49.734;8.490;2023-04-28T01:34:33;4.88;;;2.97;;
45466;SDS011;31212;49.734;8.490;2023-04-28T01:36:59;4.07;;;2.97;;
45466;SDS011;31212;49.734;8.490;2023-04-28T01:39:26;5.18;;;2.83;;
45466;SDS011;31212;49.734;8.490;2023-04-28T01:41:54;3.90;;;2.55;;
45466;SDS011;31212;49.734;8.490;2023-04-28T01:44:20;5.75;;;2.97;;
45466;SDS011;31212;49.734;8.490;2023-04-28T01:46:47;5.10;;;3.40;;
45466;SDS011;31212;49.734;8.490;2023-04-28T01:49:13;4.78;;;3.08;;
45466;SDS011;31212;49.734;8.490;2023-04-28T01:51:40;7.97;;;3.55;;
45466;SDS011;31212;49.734;8.490;2023-04-28T01:54:06;7.95;;;3.35;;
45466;SDS011;31212;49.734;8.490;2023-04-28T01:56:33;6.65;;;3.55;;
45466;SDS011;31212;49.734;8.490;2023-04-28T01:59:01;5.53;;;3.78;;
45466;SDS011;31212;49.734;8.490;2023-04-28T02:01:28;7.10;;;3.33;;
45466;SDS011;31212;49.734;8.490;2023-04-28T02:03:55;5.75;;;3.10;;
45466;SDS011;31212;49.734;8.490;2023-04-28T02:06:22;5.25;;;3.42;;
45466;SDS011;31212;49.734;8.490;2023-04-28T02:08:48;6.97;;;3.80;;
45466;SDS011;31212;49.734;8.490;2023-04-28T02:11:15;7.93;;;4.20;;
45466;SDS011;31212;49.734;8.490;2023-04-28T02:13:41;8.98;;;3.58;;
45466;SDS011;31212;49.734;8.490;2023-04-28T02:16:09;5.60;;;4.30;;
45466;SDS011;31212;49.734;8.490;2023-04-28T02:18:36;8.63;;;4.22;;
45466;SDS011;31212;49.734;8.490;2023-04-28T02:21:09;9.27;;;4.00;;
45466;SDS011;31212;49.734;8.490;2023-04-28T02:23:36;11.70;;;3.72;;
45466;SDS011;31212;49.734;8.490;2023-04-28T02:26:03;5.25;;;2.90;;
45466;SDS011;31212;49.734;8.490;2023-04-28T02:28:30;11.48;;;2.90;;
45466;SDS011;31212;49.734;8.490;2023-04-28T02:31:04;4.72;;;2.83;;
45466;SDS011;31212;49.734;8.490;2023-04-28T02:33:33;5.70;;;2.95;;
45466;SDS011;31212;49.734;8.490;2023-04-28T02:36:00;5.65;;;3.53;;
45466;SDS011;31212;49.734;8.490;2023-04-28T02:38:27;7.10;;;4.47;;
45466;SDS011;31212;49.734;8.490;2023-04-28T02:40:57;7.07;;;3.13;;
45466;SDS011;31212;49.734;8.490;2023-04-28T02:43:25;6.38;;;3.90;;
45466;SDS011;31212;49.734;8.490;2023-04-28T02:45:51;4.78;;;3.70;;
45466;SDS011;31212;49.734;8.490;2023-04-28T02:48:18;6.65;;;4.30;;
45466;SDS011;31212;49.734;8.490;2023-04-28T02:50:46;7.15;;;4.03;;
45466;SDS011;31212;49.734;8.490;2023-04-28T02:53:12;6.50;;;4.07;;
45466;SDS011;31212;49.734;8.490;2023-04-28T02:55:39;6.82;;;3.88;;
45466;SDS011;31212;49.734;8.490;2023-04-28T02:58:06;8.38;;;3.92;;
45466;SDS011;31212;49.734;8.490;2023-04-28T03:00:32;9.35;;;3.75;;
45466;SDS011;31212;49.734;8.490;2023-04-28T03:02:59;7.43;;;3.75;;
45466;SDS011;31212;49.734;8.490;2023-04-28T03:05:26;7.75;;;3.75;;
45466;SDS011;31212;49.734;8.490;2023-04-28T03:07:54;8.43;;;4.50;;
45466;SDS011;31212;49.734;8.490;2023-04-28T03:10:20;8.82;;;4.65;;
45466;SDS011;31212;49.734;8.490;2023-04-28T03:12:47;6.93;;;4.13;;
45466;SDS011;31212;49.734;8.490;2023-04-28T03:15:14;9.10;;;4.80;;
45466;SDS011;31212;49.734;8.490;2023-04-28T03:17:40;4.93;;;3.15;;
45466;SDS011;31212;49.734;8.490;2023-04-28T03:20:07;5.47;;;4.18;;
45466;SDS011;31212;49.734;8.490;2023-04-28T03:22:35;6.72;;;3.72;;
45466;SDS011;31212;49.734;8.490;2023-04-28T03:25:03;10.35;;;4.18;;
45466;SDS011;31212;49.734;8.490;2023-04-28T03:27:35;9.07;;;4.05;;
45466;SDS011;31212;49.734;8.490;2023-04-28T03:30:04;9.95;;;4.55;;
45466;SDS011;31212;49.734;8.490;2023-04-28T03:32:32;7.70;;;3.78;;
45466;SDS011;31212;49.734;8.490;2023-04-28T03:34:58;4.65;;;2.88;;
45466;SDS011;31212;49.734;8.490;2023-04-28T03:37:25;8.15;;;4.03;;
45466;SDS011;31212;49.734;8.490;2023-04-28T03:39:51;8.48;;;3.60;;
45466;SDS011;31212;49.734;8.490;2023-04-28T03:42:19;5.47;;;4.20;;
45466;SDS011;31212;49.734;8.490;2023-04-28T03:45:06;5.90;;;3.45;;
45466;SDS011;31212;49.734;8.490;2023-04-28T03:47:33;5.15;;;3.38;;
45466;SDS011;31212;49.734;8.490;2023-04-28T03:50:00;5.82;;;3.78;;
45466;SDS011;31212;49.734;8.490;2023-04-28T03:52:26;8.43;;;4.75;;
45466;SDS011;31212;49.734;8.490;2023-04-28T03:54:53;6.85;;;4.45;;
45466;SDS011;31212;49.734;8.490;2023-04-28T03:57:21;14.73;;;5.53;;
45466;SDS011;31212;49.734;8.490;2023-04-28T03:59:49;9.02;;;5.50;;
45466;SDS011;31212;49.734;8.490;2023-04-28T04:02:16;8.25;;;5.28;;
45466;SDS011;31212;49.734;8.490;2023-04-28T04:04:42;7.93;;;4.20;;
45466;SDS011;31212;49.734;8.490;2023-04-28T04:07:09;8.38;;;5.47;;
45466;SDS011;31212;49.734;8.490;2023-04-28T04:09:36;7.68;;;4.53;;
45466;SDS011;31212;49.734;8.490;2023-04-28T04:12:03;8.02;;;5.15;;
45466;SDS011;31212;49.734;8.490;2023-04-28T04:14:31;7.05;;;3.88;;
45466;SDS011;31212;49.734;8.490;2023-04-28T04:16:59;7.00;;;4.10;;
45466;SDS011;31212;49.734;8.490;2023-04-28T04:19:27;8.43;;;5.47;;
45466;SDS011;31212;49.734;8.490;2023-04-28T04:21:54;6.65;;;3.85;;
45466;SDS011;31212;49.734;8.490;2023-04-28T04:24:21;6.88;;;4.10;;
45466;SDS011;31212;49.734;8.490;2023-04-28T04:26:48;10.82;;;4.35;;
45466;SDS011;31212;49.734;8.490;2023-04-28T04:29:25;7.63;;;4.25;;
45466;SDS011;31212;49.734;8.490;2023-04-28T04:31:53;6.72;;;4.28;;
45466;SDS011;31212;49.734;8.490;2023-04-28T04:34:20;8.02;;;4.18;;
45466;SDS011;31212;49.734;8.490;2023-04-28T04:36:46;5.85;;;3.53;;
45466;SDS011;31212;49.734;8.490;2023-04-28T04:39:13;9.23;;;4.80;;
45466;SDS011;31212;49.734;8.490;2023-04-28T04:41:39;14.88;;;8.43;;
45466;SDS011;31212;49.734;8.490;2023-04-28T04:44:29;24.65;;;14.38;;
45466;SDS011;31212;49.734;8.490;2023-04-28T04:46:58;36.75;;;17.80;;
45466;SDS011;31212;49.734;8.490;2023-04-28T04:49:25;35.58;;;17.85;;
45466;SDS011;31212;49.734;8.490;2023-04-28T04:51:52;28.00;;;14.23;;
45466;SDS011;31212;49.734;8.490;2023-04-28T04:54:18;18.23;;;10.30;;
45466;SDS011;31212;49.734;8.490;2023-04-28T04:56:45;13.02;;;7.10;;
45466;SDS011;31212;49.734;8.490;2023-04-28T04:59:16;9.50;;;5.85;;
45466;SDS011;31212;49.734;8.490;2023-04-28T05:01:49;7.35;;;4.60;;
45466;SDS011;31212;49.734;8.490;2023-04-28T05:04:16;8.85;;;5.18;;
45466;SDS011;31212;49.734;8.490;2023-04-28T05:06:43;10.48;;;4.70;;
45466;SDS011;31212;49.734;8.490;2023-04-28T05:09:10;12.77;;;6.00;;
45466;SDS011;31212;49.734;8.490;2023-04-28T05:11:37;11.73;;;5.13;;
45466;SDS011;31212;49.734;8.490;2023-04-28T05:14:04;10.00;;;6.10;;
45466;SDS011;31212;49.734;8.490;2023-04-28T05:16:31;7.60;;;4.65;;
45466;SDS011;31212;49.734;8.490;2023-04-28T05:19:07;6.82;;;4.63;;
45466;SDS011;31212;49.734;8.490;2023-04-28T05:21:35;12.77;;;4.90;;
45466;SDS011;31212;49.734;8.490;2023-04-28T05:24:02;11.00;;;5.43;;
45466;SDS011;31212;49.734;8.490;2023-04-28T05:26:29;9.48;;;4.68;;
45466;SDS011;31212;49.734;8.490;2023-04-28T05:29:01;7.38;;;4.65;;
45466;SDS011;31212;49.734;8.490;2023-04-28T05:31:28;9.40;;;4.18;;
45466;SDS011;31212;49.734;8.490;2023-04-28T05:33:54;8.85;;;5.03;;
45466;SDS011;31212;49.734;8.490;2023-04-28T05:36:21;7.93;;;5.00;;
45466;SDS011;31212;49.734;8.490;2023-04-28T05:38:49;7.53;;;4.90;;
45466;SDS011;31212;49.734;8.490;2023-04-28T05:41:16;7.85;;;5.28;;
45466;SDS011;31212;49.734;8.490;2023-04-28T05:43:43;10.15;;;5.20;;
45466;SDS011;31212;49.734;8.490;2023-04-28T05:46:10;9.32;;;4.90;;
45466;SDS011;31212;49.734;8.490;2023-04-28T05:48:37;9.63;;;6.05;;
45466;SDS011;31212;49.734;8.490;2023-04-28T05:51:05;9.05;;;6.35;;
45466;SDS011;31212;49.734;8.490;2023-04-28T05:53:31;12.73;;;5.60;;
45466;SDS011;31212;49.734;8.490;2023-04-28T05:55:59;11.35;;;6.40;;
45466;SDS011;31212;49.734;8.490;2023-04-28T05:58:26;9.65;;;5.60;;
45466;SDS011;31212;49.734;8.490;2023-04-28T06:00:54;7.60;;;4.97;;
45466;SDS011;31212;49.734;8.490;2023-04-28T06:03:20;12.45;;;5.75;;
45466;SDS011;31212;49.734;8.490;2023-04-28T06:05:47;15.00;;;6.47;;
45466;SDS011;31212;49.734;8.490;2023-04-28T06:08:14;12.50;;;5.97;;
45466;SDS011;31212;49.734;8.490;2023-04-28T06:10:40;13.07;;;6.45;;
45466;SDS011;31212;49.734;8.490;2023-04-28T06:13:08;11.65;;;6.28;;
45466;SDS011;31212;49.734;8.490;2023-04-28T06:15:35;14.82;;;6.32;;
45466;SDS011;31212;49.734;8.490;2023-04-28T06:18:02;13.60;;;5.50;;
45466;SDS011;31212;49.734;8.490;2023-04-28T06:20:30;10.77;;;5.63;;
45466;SDS011;31212;49.734;8.490;2023-04-28T06:22:56;12.07;;;5.55;;
45466;SDS011;31212;49.734;8.490;2023-04-28T06:25:23;8.55;;;4.65;;
45466;SDS011;31212;49.734;8.490;2023-04-28T06:27:49;8.32;;;6.22;;
45466;SDS011;31212;49.734;8.490;2023-04-28T06:30:18;17.55;;;5.57;;
45466;SDS011;31212;49.734;8.490;2023-04-28T06:32:47;13.90;;;6.18;;
45466;SDS011;31212;49.734;8.490;2023-04-28T06:35:14;10.48;;;5.32;;
45466;SDS011;31212;49.734;8.490;2023-04-28T06:37:41;9.75;;;5.68;;
45466;SDS011;31212;49.734;8.490;2023-04-28T06:40:08;11.52;;;5.38;;
45466;SDS011;31212;49.734;8.490;2023-04-28T06:42:39;9.02;;;5.20;;
45466;SDS011;31212;49.734;8.490;2023-04-28T06:45:10;12.77;;;5.85;;
45466;SDS011;31212;49.734;8.490;2023-04-28T06:47:38;12.30;;;6.07;;
45466;SDS011;31212;49.734;8.490;2023-04-28T06:50:07;11.07;;;5.32;;
45466;SDS011;31212;49.734;8.490;2023-04-28T06:52:35;12.27;;;5.63;;
45466;SDS011;31212;49.734;8.490;2023-04-28T06:55:03;10.95;;;6.55;;
45466;SDS011;31212;49.734;8.490;2023-04-28T06:57:30;9.23;;;5.03;;
45466;SDS011;31212;49.734;8.490;2023-04-28T06:59:56;9.23;;;4.60;;
45466;SDS011;31212;49.734;8.490;2023-04-28T07:02:22;14.00;;;5.20;;
45466;SDS011;31212;49.734;8.490;2023-04-28T07:04:50;14.70;;;5.85;;
45466;SDS011;31212;49.734;8.490;2023-04-28T07:07:17;13.95;;;6.32;;
45466;SDS011;31212;49.734;8.490;2023-04-28T07:09:43;15.40;;;5.47;;
45466;SDS011;31212;49.734;8.490;2023-04-28T07:12:10;10.35;;;6.28;;
45466;SDS011;31212;49.734;8.490;2023-04-28T07:14:36;11.50;;;5.68;;
45466;SDS011;31212;49.734;8.490;2023-04-28T07:17:03;7.82;;;4.80;;
45466;SDS011;31212;49.734;8.490;2023-04-28T07:19:29;10.93;;;6.93;;
45466;SDS011;31212;49.734;8.490;2023-04-28T07:21:57;16.40;;;7.63;;
45466;SDS011;31212;49.734;8.490;2023-04-28T07:24:24;14.30;;;6.30;;
45466;SDS011;31212;49.734;8.490;2023-04-28T07:26:52;12.38;;;6.22;;
45466;SDS011;31212;49.734;8.490;2023-04-28T07:29:18;11.35;;;6.43;;
45466;SDS011;31212;49.734;8.490;2023-04-28T07:31:45;12.73;;;5.93;;
45466;SDS011;31212;49.734;8.490;2023-04-28T07:34:11;14.85;;;7.65;;
45466;SDS011;31212;49.734;8.490;2023-04-28T07:36:38;11.35;;;7.00;;
45466;SDS011;31212;49.734;8.490;2023-04-28T07:39:06;12.73;;;6.82;;
45466;SDS011;31212;49.734;8.490;2023-04-28T07:41:34;7.75;;;5.10;;
45466;SDS011;31212;49.734;8.490;2023-04-28T07:44:02;10.10;;;5.90;;
45466;SDS011;31212;49.734;8.490;2023-04-28T07:46:29;8.48;;;4.68;;
45466;SDS011;31212;49.734;8.490;2023-04-28T07:48:56;11.65;;;5.85;;
45466;SDS011;31212;49.734;8.490;2023-04-28T07:51:22;12.32;;;6.13;;
45466;SDS011;31212;49.734;8.490;2023-04-28T07:53:49;8.70;;;5.13;;
45466;SDS011;31212;49.734;8.490;2023-04-28T07:56:17;9.63;;;5.72;;
45466;SDS011;31212;49.734;8.490;2023-04-28T07:58:43;12.88;;;6.75;;
45466;SDS011;31212;49.734;8.490;2023-04-28T08:01:10;8.93;;;5.57;;
45466;SDS011;31212;49.734;8.490;2023-04-28T08:03:37;9.02;;;5.18;;
45466;SDS011;31212;49.734;8.490;2023-04-28T08:06:03;12.77;;;5.82;;
45466;SDS011;31212;49.734;8.490;2023-04-28T08:08:30;10.80;;;6.22;;
45466;SDS011;31212;49.734;8.490;2023-04-28T08:10:56;13.07;;;6.78;;
45466;SDS011;31212;49.734;8.490;2023-04-28T08:13:25;13.30;;;6.95;;
45466;SDS011;31212;49.734;8.490;2023-04-28T08:15:53;11.77;;;7.15;;
45466;SDS011;31212;49.734;8.490;2023-04-28T08:18:20;9.43;;;6.43;;
45466;SDS011;31212;49.734;8.490;2023-04-28T08:20:47;13.18;;;8.35;;
45466;SDS011;31212;49.734;8.490;2023-04-28T08:23:13;13.18;;;7.38;;
45466;SDS011;31212;49.734;8.490;2023-04-28T08:25:40;13.98;;;7.55;;
45466;SDS011;31212;49.734;8.490;2023-04-28T08:28:07;13.73;;;7.28;;
45466;SDS011;31212;49.734;8.490;2023-04-28T08:30:35;11.55;;;6.65;;
45466;SDS011;31212;49.734;8.490;2023-04-28T08:33:02;15.65;;;6.90;;
45466;SDS011;31212;49.734;8.490;2023-04-28T08:35:29;10.63;;;6.05;;
45466;SDS011;31212;49.734;8.490;2023-04-28T08:37:56;10.20;;;7.20;;
45466;SDS011;31212;49.734;8.490;2023-04-28T08:40:22;9.77;;;5.47;;
45466;SDS011;31212;49.734;8.490;2023-04-28T08:42:50;14.77;;;7.57;;
45466;SDS011;31212;49.734;8.490;2023-04-28T08:45:17;12.35;;;6.85;;
45466;SDS011;31212;49.734;8.490;2023-04-28T08:47:46;12.90;;;7.18;;
45466;SDS011;31212;49.734;8.490;2023-04-28T08:50:14;15.00;;;7.75;;
45466;SDS011;31212;49.734;8.490;2023-04-28T08:52:45;13.27;;;8.50;;
45466;SDS011;31212;49.734;8.490;2023-04-28T08:55:13;10.18;;;7.18;;
45466;SDS011;31212;49.734;8.490;2023-04-28T08:57:41;11.55;;;7.30;;
45466;SDS011;31212;49.734;8.490;2023-04-28T09:00:09;13.40;;;7.00;;
45466;SDS011;31212;49.734;8.490;2023-04-28T09:02:37;20.40;;;7.85;;
45466;SDS011;31212;49.734;8.490;2023-04-28T09:05:10;12.07;;;7.22;;
45466;SDS011;31212;49.734;8.490;2023-04-28T09:07:37;11.48;;;7.85;;
45466;SDS011;31212;49.734;8.490;2023-04-28T09:10:14;10.80;;;6.45;;
45466;SDS011;31212;49.734;8.490;2023-04-28T09:12:42;11.85;;;7.80;;
45466;SDS011;31212;49.734;8.490;2023-04-28T09:15:08;12.85;;;7.70;;
45466;SDS011;31212;49.734;8.490;2023-04-28T09:17:45;16.70;;;9.85;;
45466;SDS011;31212;49.734;8.490;2023-04-28T09:20:19;22.48;;;10.38;;
45466;SDS011;31212;49.734;8.490;2023-04-28T09:22:46;21.15;;;9.45;;
45466;SDS011;31212;49.734;8.490;2023-04-28T09:25:15;12.93;;;8.18;;
45466;SDS011;31212;49.734;8.490;2023-04-28T09:27:42;11.23;;;6.93;;
45466;SDS011;31212;49.734;8.490;2023-04-28T09:30:08;13.50;;;6.65;;
45466;SDS011;31212;49.734;8.490;2023-04-28T09:32:35;19.15;;;8.38;;
45466;SDS011;31212;49.734;8.490;2023-04-28T09:35:02;11.02;;;6.97;;
45466;SDS011;31212;49.734;8.490;2023-04-28T09:37:32;11.68;;;7.43;;
45466;SDS011;31212;49.734;8.490;2023-04-28T09:40:04;8.95;;;6.30;;
45466;SDS011;31212;49.734;8.490;2023-04-28T09:42:33;8.40;;;5.82;;
45466;SDS011;31212;49.734;8.490;2023-04-28T09:45:00;9.05;;;6.20;;
45466;SDS011;31212;49.734;8.490;2023-04-28T09:47:28;11.95;;;6.85;;
45466;SDS011;31212;49.734;8.490;2023-04-28T09:49:57;12.18;;;7.13;;
45466;SDS011;31212;49.734;8.490;2023-04-28T09:52:24;14.48;;;7.10;;
45466;SDS011;31212;49.734;8.490;2023-04-28T09:54:53;8.88;;;6.57;;
45466;SDS011;31212;49.734;8.490;2023-04-28T09:57:20;13.02;;;6.82;;
45466;SDS011;31212;49.734;8.490;2023-04-28T09:59:49;10.07;;;5.72;;
45466;SDS011;31212;49.734;8.490;2023-04-28T10:02:17;7.35;;;5.78;;
45466;SDS011;31212;49.734;8.490;2023-04-28T10:04:45;10.25;;;6.97;;
45466;SDS011;31212;49.734;8.490;2023-04-28T10:07:15;12.85;;;5.85;;
45466;SDS011;31212;49.734;8.490;2023-04-28T10:09:42;10.13;;;6.07;;
45466;SDS011;31212;49.734;8.490;2023-04-28T10:12:13;10.40;;;6.78;;
45466;SDS011;31212;49.734;8.490;2023-04-28T10:14:40;12.38;;;7.30;;
45466;SDS011;31212;49.734;8.490;2023-04-28T10:17:08;11.52;;;6.57;;
45466;SDS011;31212;49.734;8.490;2023-04-28T10:19:35;9.10;;;5.22;;
45466;SDS011;31212;49.734;8.490;2023-04-28T10:22:08;9.23;;;5.30;;
45466;SDS011;31212;49.734;8.490;2023-04-28T10:24:51;9.32;;;6.32;;
45466;SDS011;31212;49.734;8.490;2023-04-28T10:27:30;7.63;;;5.03;;
45466;SDS011;31212;49.734;8.490;2023-04-28T10:30:10;8.80;;;5.10;;
45466;SDS011;31212;49.734;8.490;2023-04-28T10:32:38;8.65;;;5.00;;
45466;SDS011;31212;49.734;8.490;2023-04-28T10:38:07;9.52;;;5.18;;
45466;SDS011;31212;49.734;8.490;2023-04-28T10:40:35;9.80;;;5.25;;
45466;SDS011;31212;49.734;8.490;2023-04-28T10:43:04;9.48;;;5.97;;
45466;SDS011;31212;49.734;8.490;2023-04-28T10:51:22;5.60;;;3.95;;
45466;SDS011;31212;49.734;8.490;2023-04-28T10:59:51;5.80;;;4.25;;
45466;SDS011;31212;49.734;8.490;2023-04-28T11:02:40;6.90;;;4.20;;
45466;SDS011;31212;49.734;8.490;2023-04-28T11:05:13;7.03;;;4.50;;
45466;SDS011;31212;49.734;8.490;2023-04-28T11:13:42;6.65;;;4.72;;
45466;SDS011;31212;49.734;8.490;2023-04-28T11:16:14;9.88;;;4.55;;
45466;SDS011;31212;49.734;8.490;2023-04-28T11:18:49;8.48;;;4.07;;
45466;SDS011;31212;49.734;8.490;2023-04-28T11:21:17;5.93;;;3.47;;
45466;SDS011;31212;49.734;8.490;2023-04-28T11:23:43;7.40;;;4.20;;
45466;SDS011;31212;49.734;8.490;2023-04-28T11:26:10;6.68;;;3.88;;
45466;SDS011;31212;49.734;8.490;2023-04-28T11:28:45;5.85;;;4.13;;
45466;SDS011;31212;49.734;8.490;2023-04-28T11:31:14;7.43;;;4.03;;
45466;SDS011;31212;49.734;8.490;2023-04-28T11:33:44;10.68;;;5.00;;
45466;SDS011;31212;49.734;8.490;2023-04-28T11:36:28;7.20;;;4.38;;
45466;SDS011;31212;49.734;8.490;2023-04-28T11:38:56;6.68;;;4.50;;
45466;SDS011;31212;49.734;8.490;2023-04-28T11:41:24;7.72;;;3.53;;
45466;SDS011;31212;49.734;8.490;2023-04-28T11:43:51;7.47;;;4.35;;
45466;SDS011;31212;49.734;8.490;2023-04-28T11:46:20;6.30;;;4.18;;
45466;SDS011;31212;49.734;8.490;2023-04-28T11:48:48;9.00;;;5.35;;
45466;SDS011;31212;49.734;8.490;2023-04-28T11:54:11;8.98;;;4.93;;
45466;SDS011;31212;49.734;8.490;2023-04-28T11:56:39;9.60;;;5.40;;
45466;SDS011;31212;49.734;8.490;2023-04-28T11:59:07;9.40;;;5.40;;
45466;SDS011;31212;49.734;8.490;2023-04-28T12:01:44;9.98;;;5.28;;
45466;SDS011;31212;49.734;8.490;2023-04-28T12:04:13;8.55;;;5.30;;
45466;SDS011;31212;49.734;8.490;2023-04-28T12:06:57;7.10;;;5.32;;
45466;SDS011;31212;49.734;8.490;2023-04-28T12:09:25;7.50;;;5.03;;
45466;SDS011;31212;49.734;8.490;2023-04-28T12:11:55;10.73;;;5.68;;
45466;SDS011;31212;49.734;8.490;2023-04-28T12:14:22;10.77;;;6.40;;
45466;SDS011;31212;49.734;8.490;2023-04-28T12:16:51;8.85;;;4.97;;
45466;SDS011;31212;49.734;8.490;2023-04-28T12:19:17;11.32;;;7.57;;
45466;SDS011;31212;49.734;8.490;2023-04-28T12:21:57;10.23;;;6.10;;
45466;SDS011;31212;49.734;8.490;2023-04-28T12:24:25;8.75;;;4.88;;
45466;SDS011;31212;49.734;8.490;2023-04-28T12:26:52;6.90;;;4.35;;
45466;SDS011;31212;49.734;8.490;2023-04-28T12:29:33;9.05;;;5.75;;
45466;SDS011;31212;49.734;8.490;2023-04-28T12:32:02;7.80;;;5.35;;
45466;SDS011;31212;49.734;8.490;2023-04-28T12:34:29;9.40;;;5.05;;
45466;SDS011;31212;49.734;8.490;2023-04-28T12:36:57;9.27;;;5.40;;
45466;SDS011;31212;49.734;8.490;2023-04-28T12:39:24;8.93;;;5.13;;
45466;SDS011;31212;49.734;8.490;2023-04-28T12:41:51;8.95;;;5.82;;
45466;SDS011;31212;49.734;8.490;2023-04-28T12:44:17;8.38;;;5.72;;
45466;SDS011;31212;49.734;8.490;2023-04-28T12:46:44;11.60;;;5.72;;
45466;SDS011;31212;49.734;8.490;2023-04-28T12:49:12;10.77;;;6.88;;
45466;SDS011;31212;49.734;8.490;2023-04-28T12:51:39;10.07;;;5.72;;
45466;SDS011;31212;49.734;8.490;2023-04-28T12:54:06;10.35;;;6.38;;
45466;SDS011;31212;49.734;8.490;2023-04-28T12:56:33;13.15;;;7.38;;
45466;SDS011;31212;49.734;8.490;2023-04-28T12:58:59;18.00;;;6.20;;
45466;SDS011;31212;49.734;8.490;2023-04-28T13:01:27;7.57;;;5.15;;
45466;SDS011;31212;49.734;8.490;2023-04-28T13:03:54;7.00;;;5.13;;
45466;SDS011;31212;49.734;8.490;2023-04-28T13:06:22;9.07;;;4.57;;
45466;SDS011;31212;49.734;8.490;2023-04-28T13:08:49;6.60;;;3.90;;
45466;SDS011;31212;49.734;8.490;2023-04-28T13:11:15;6.30;;;4.28;;
45466;SDS011;31212;49.734;8.490;2023-04-28T13:13:42;6.65;;;3.95;;
45466;SDS011;31212;49.734;8.490;2023-04-28T13:16:09;6.82;;;3.28;;
45466;SDS011;31212;49.734;8.490;2023-04-28T13:18:36;5.32;;;3.75;;
45466;SDS011;31212;49.734;8.490;2023-04-28T13:21:02;4.47;;;3.40;;
45466;SDS011;31212;49.734;8.490;2023-04-28T13:23:31;8.45;;;4.10;;
45466;SDS011;31212;49.734;8.490;2023-04-28T13:25:57;5.75;;;3.67;;
45466;SDS011;31212;49.734;8.490;2023-04-28T13:28:24;7.63;;;3.15;;
45466;SDS011;31212;49.734;8.490;2023-04-28T13:30:50;8.18;;;4.43;;
45466;SDS011;31212;49.734;8.490;2023-04-28T13:33:17;5.63;;;3.50;;
45466;SDS011;31212;49.734;8.490;2023-04-28T13:35:43;8.90;;;4.13;;
45466;SDS011;31212;49.734;8.490;2023-04-28T13:38:10;6.07;;;4.30;;
45466;SDS011;31212;49.734;8.490;2023-04-28T13:40:38;8.55;;;4.20;;
45466;SDS011;31212;49.734;8.490;2023-04-28T13:43:06;5.57;;;3.78;;
45466;SDS011;31212;49.734;8.490;2023-04-28T13:45:32;5.03;;;3.88;;
45466;SDS011;31212;49.734;8.490;2023-04-28T13:47:59;7.93;;;4.10;;
45466;SDS011;31212;49.734;8.490;2023-04-28T13:50:26;9.02;;;4.38;;
45466;SDS011;31212;49.734;8.490;2023-04-28T13:52:52;6.05;;;4.30;;
45466;SDS011;31212;49.734;8.490;2023-04-28T13:55:19;5.13;;;3.67;;
45466;SDS011;31212;49.734;8.490;2023-04-28T13:57:52;11.90;;;4.15;;
45466;SDS011;31212;49.734;8.490;2023-04-28T14:00:19;5.57;;;3.85;;
45466;SDS011;31212;49.734;8.490;2023-04-28T14:02:46;8.85;;;3.88;;
45466;SDS011;31212;49.734;8.490;2023-04-28T14:05:13;7.75;;;4.05;;
45466;SDS011;31212;49.734;8.490;2023-04-28T14:07:40;8.27;;;4.95;;
45466;SDS011;31212;49.734;8.490;2023-04-28T14:10:07;11.60;;;4.03;;
45466;SDS011;31212;49.734;8.490;2023-04-28T14:12:35;6.43;;;3.25;;
45466;SDS011;31212;49.734;8.490;2023-04-28T14:15:03;5.38;;;3.40;;
45466;SDS011;31212;49.734;8.490;2023-04-28T14:17:31;4.82;;;3.50;;
45466;SDS011;31212;49.734;8.490;2023-04-28T14:19:58;6.30;;;3.83;;
45466;SDS011;31212;49.734;8.490;2023-04-28T14:22:25;4.70;;;3.50;;
45466;SDS011;31212;49.734;8.490;2023-04-28T14:24:52;5.90;;;3.63;;
45466;SDS011;31212;49.734;8.490;2023-04-28T14:27:19;4.50;;;3.08;;
45466;SDS011;31212;49.734;8.490;2023-04-28T14:29:45;7.65;;;4.28;;
45466;SDS011;31212;49.734;8.490;2023-04-28T14:32:14;3.20;;;2.53;;
45466;SDS011;31212;49.734;8.490;2023-04-28T14:34:45;4.95;;;3.22;;
45466;SDS011;31212;49.734;8.490;2023-04-28T14:37:12;3.47;;;2.55;;
45466;SDS011;31212;49.734;8.490;2023-04-28T14:39:38;5.30;;;2.95;;
45466;SDS011;31212;49.734;8.490;2023-04-28T14:42:05;3.35;;;2.30;;
45466;SDS011;31212;49.734;8.490;2023-04-28T14:44:32;4.18;;;2.45;;
45466;SDS011;31212;49.734;8.490;2023-04-28T14:46:59;4.03;;;1.77;;
45466;SDS011;31212;49.734;8.490;2023-04-28T14:49:27;2.55;;;2.03;;
45466;SDS011;31212;49.734;8.490;2023-04-28T14:51:54;3.25;;;1.90;;
45466;SDS011;31212;49.734;8.490;2023-04-28T14:54:22;5.13;;;1.70;;
45466;SDS011;31212;49.734;8.490;2023-04-28T14:56:48;2.20;;;1.50;;
45466;SDS011;31212;49.734;8.490;2023-04-28T14:59:15;2.22;;;1.40;;
45466;SDS011;31212;49.734;8.490;2023-04-28T15:01:43;2.90;;;1.55;;
45466;SDS011;31212;49.734;8.490;2023-04-28T15:04:09;0.90;;;0.90;;
45466;SDS011;31212;49.734;8.490;2023-04-28T15:06:37;1.00;;;0.90;;
45466;SDS011;31212;49.734;8.490;2023-04-28T15:09:04;1.75;;;1.05;;
45466;SDS011;31212;49.734;8.490;2023-04-28T15:11:30;2.67;;;0.90;;